createdAt,value
2023-12-27T00:00:52.979Z,6.3
2023-12-27T00:02:07.334Z,6.2
2023-12-27T00:03:21.689Z,6.3
2023-12-27T00:04:36.044Z,6.3
2023-12-27T00:05:50.399Z,6.3
2023-12-27T00:07:04.754Z,6.3
2023-12-27T00:08:19.109Z,6.2
2023-12-27T00:09:33.464Z,6.2
2023-12-27T00:10:47.819Z,6.2
2023-12-27T00:12:02.173Z,6.1
2023-12-27T00:13:16.528Z,6.1
2023-12-27T00:14:30.884Z,6.1
2023-12-27T00:15:45.238Z,6.1
2023-12-27T00:16:59.593Z,6
2023-12-27T00:18:13.948Z,6
2023-12-27T00:19:28.303Z,6
2023-12-27T00:20:42.658Z,6
2023-12-27T00:21:57.013Z,5.9
2023-12-27T00:23:11.368Z,5.9
2023-12-27T00:24:25.723Z,5.9
2023-12-27T00:25:40.078Z,5.8
2023-12-27T00:26:54.433Z,5.8
2023-12-27T00:28:08.788Z,5.8
2023-12-27T00:29:23.143Z,5.8
2023-12-27T00:30:37.498Z,5.8
2023-12-27T00:31:51.853Z,5.8
2023-12-27T00:33:06.208Z,5.7
2023-12-27T00:34:20.563Z,5.8
2023-12-27T00:35:34.918Z,5.7
2023-12-27T00:36:49.273Z,5.7
2023-12-27T00:38:03.628Z,5.7
2023-12-27T00:39:17.983Z,5.7
2023-12-27T00:40:32.338Z,5.7
2023-12-27T00:41:46.693Z,5.7
2023-12-27T00:43:01.048Z,5.7
2023-12-27T00:44:15.404Z,5.7
2023-12-27T00:46:44.114Z,5.7
2023-12-27T00:47:58.469Z,5.7
2023-12-27T00:49:12.824Z,5.6
2023-12-27T00:50:27.179Z,5.7
2023-12-27T00:51:41.534Z,5.7
2023-12-27T00:52:55.889Z,5.7
2023-12-27T00:54:10.245Z,5.6
2023-12-27T00:55:24.600Z,5.7
2023-12-27T00:56:38.955Z,5.6
2023-12-27T00:57:53.310Z,5.6
2023-12-27T00:59:07.665Z,5.5
2023-12-27T01:00:22.020Z,5.5
2023-12-27T01:01:36.375Z,5.5
2023-12-27T01:02:50.730Z,5.4
2023-12-27T01:04:05.085Z,5.4
2023-12-27T01:05:19.440Z,5.4
2023-12-27T01:06:33.795Z,5.4
2023-12-27T01:07:48.150Z,5.3
2023-12-27T01:09:02.505Z,5.2
2023-12-27T01:10:16.860Z,5.2
2023-12-27T01:11:31.215Z,5.2
2023-12-27T01:12:45.570Z,5.1
2023-12-27T01:13:59.925Z,5.1
2023-12-27T01:15:14.280Z,5.1
2023-12-27T01:16:28.635Z,5.1
2023-12-27T01:17:42.990Z,5
2023-12-27T01:18:57.345Z,5.1
2023-12-27T01:20:10.758Z,5.1
2023-12-27T01:21:25.113Z,5.1
2023-12-27T01:22:39.468Z,5.1
2023-12-27T01:23:53.823Z,5.1
2023-12-27T01:25:08.178Z,5.1
2023-12-27T01:26:22.533Z,5.1
2023-12-27T01:27:36.888Z,5.1
2023-12-27T01:28:51.243Z,5.1
2023-12-27T01:30:05.598Z,5.1
2023-12-27T01:31:19.953Z,5
2023-12-27T01:32:34.308Z,5
2023-12-27T01:33:48.664Z,5
2023-12-27T01:36:17.374Z,4.9
2023-12-27T01:37:31.729Z,5
2023-12-27T01:38:46.084Z,5
2023-12-27T01:40:00.439Z,5
2023-12-27T01:41:14.794Z,5
2023-12-27T01:42:29.149Z,4.9
2023-12-27T01:43:43.504Z,4.9
2023-12-27T01:44:57.860Z,4.9
2023-12-27T01:47:26.570Z,4.8
2023-12-27T01:48:40.925Z,4.8
2023-12-27T01:49:55.280Z,4.8
2023-12-27T01:51:09.635Z,4.8
2023-12-27T01:52:23.990Z,4.8
2023-12-27T01:53:38.345Z,4.8
2023-12-27T01:54:52.700Z,4.8
2023-12-27T01:56:07.055Z,4.8
2023-12-27T01:57:21.410Z,4.7
2023-12-27T01:58:35.765Z,4.8
2023-12-27T01:59:50.120Z,4.7
2023-12-27T02:01:04.475Z,4.7
2023-12-27T02:02:18.830Z,4.7
2023-12-27T02:03:33.185Z,4.7
2023-12-27T02:04:47.541Z,4.7
2023-12-27T02:06:01.896Z,4.7
2023-12-27T02:07:16.251Z,4.7
2023-12-27T02:08:30.606Z,4.6
2023-12-27T02:09:44.961Z,4.6
2023-12-27T02:10:59.316Z,4.6
2023-12-27T02:12:13.671Z,4.6
2023-12-27T02:13:28.026Z,4.7
2023-12-27T02:14:42.381Z,4.6
2023-12-27T02:15:56.736Z,4.6
2023-12-27T02:17:11.091Z,4.6
2023-12-27T02:18:25.446Z,4.6
2023-12-27T02:19:39.801Z,4.7
2023-12-27T02:20:54.157Z,4.6
2023-12-27T02:22:08.512Z,4.6
2023-12-27T02:23:22.867Z,4.5
2023-12-27T02:24:37.222Z,4.5
2023-12-27T02:25:51.577Z,4.4
2023-12-27T02:27:05.932Z,4.4
2023-12-27T02:28:20.287Z,4.3
2023-12-27T02:29:34.642Z,4.3
2023-12-27T02:30:48.997Z,4.3
2023-12-27T02:32:03.352Z,4.3
2023-12-27T02:33:17.707Z,4.3
2023-12-27T02:34:32.063Z,4.3
2023-12-27T02:35:46.418Z,4.1
2023-12-27T02:37:00.773Z,4.2
2023-12-27T02:38:15.128Z,4.2
2023-12-27T02:39:29.483Z,4.1
2023-12-27T02:40:43.838Z,4.1
2023-12-27T02:41:58.193Z,4.2
2023-12-27T02:43:12.548Z,4.2
2023-12-27T02:44:26.903Z,4.1
2023-12-27T02:45:41.259Z,4.2
2023-12-27T02:46:55.614Z,4.1
2023-12-27T02:48:09.969Z,4.1
2023-12-27T02:49:24.325Z,4.1
2023-12-27T02:50:38.680Z,4.1
2023-12-27T02:51:53.035Z,4.1
2023-12-27T02:54:21.745Z,3.9
2023-12-27T02:55:36.100Z,3.9
2023-12-27T02:56:50.455Z,3.8
2023-12-27T02:58:04.810Z,3.7
2023-12-27T02:59:19.165Z,3.6
2023-12-27T03:00:33.521Z,3.5
2023-12-27T03:01:47.876Z,3.5
2023-12-27T03:03:02.231Z,3.4
2023-12-27T03:04:16.586Z,3.4
2023-12-27T03:05:30.941Z,3.4
2023-12-27T03:06:45.296Z,3.4
2023-12-27T03:07:59.651Z,3.4
2023-12-27T03:09:14.006Z,3.3
2023-12-27T03:10:28.362Z,3.3
2023-12-27T03:11:42.717Z,3.3
2023-12-27T03:12:57.072Z,3.3
2023-12-27T03:14:11.427Z,3.3
2023-12-27T03:15:25.782Z,3.3
2023-12-27T03:16:40.137Z,3.2
2023-12-27T03:17:54.492Z,3.1
2023-12-27T03:19:08.848Z,3
2023-12-27T03:20:23.203Z,3
2023-12-27T03:21:37.558Z,3
2023-12-27T03:22:51.913Z,3
2023-12-27T03:24:06.268Z,2.9
2023-12-27T03:25:20.623Z,3
2023-12-27T03:26:34.979Z,3
2023-12-27T03:27:49.334Z,2.9
2023-12-27T03:29:03.689Z,3
2023-12-27T03:30:18.044Z,3
2023-12-27T03:31:32.399Z,3
2023-12-27T03:32:46.754Z,3
2023-12-27T03:34:01.110Z,3.1
2023-12-27T03:35:15.465Z,3.1
2023-12-27T03:36:29.820Z,3.1
2023-12-27T03:37:44.175Z,3.2
2023-12-27T03:38:58.530Z,3.2
2023-12-27T03:40:12.885Z,3.4
2023-12-27T03:41:27.240Z,3.4
2023-12-27T03:42:41.595Z,3.4
2023-12-27T03:43:55.951Z,3.4
2023-12-27T03:45:10.306Z,3.5
2023-12-27T03:46:24.661Z,3.4
2023-12-27T03:47:39.016Z,3.5
2023-12-27T03:48:53.371Z,3.5
2023-12-27T03:50:07.726Z,3.4
2023-12-27T03:51:22.081Z,3.5
2023-12-27T03:52:36.436Z,3.5
2023-12-27T03:53:50.792Z,3.5
2023-12-27T03:55:05.147Z,3.4
2023-12-27T03:56:19.502Z,3.4
2023-12-27T03:57:33.857Z,3.4
2023-12-27T03:58:48.212Z,3.3
2023-12-27T04:00:02.567Z,3.2
2023-12-27T04:01:16.922Z,3.1
2023-12-27T04:02:31.277Z,3
2023-12-27T04:03:45.633Z,2.9
2023-12-27T04:06:14.343Z,2.8
2023-12-27T04:07:28.698Z,2.8
2023-12-27T04:08:43.053Z,2.8
2023-12-27T04:09:57.408Z,2.8
2023-12-27T04:11:11.763Z,2.7
2023-12-27T04:12:26.118Z,2.7
2023-12-27T04:13:40.474Z,2.7
2023-12-27T04:14:54.829Z,2.7
2023-12-27T04:16:09.184Z,2.7
2023-12-27T04:17:23.539Z,2.7
2023-12-27T04:18:37.894Z,2.7
2023-12-27T04:19:52.249Z,2.6
2023-12-27T04:21:06.604Z,2.6
2023-12-27T04:22:20.959Z,2.6
2023-12-27T04:23:35.314Z,2.6
2023-12-27T04:24:49.669Z,2.5
2023-12-27T04:26:04.025Z,2.5
2023-12-27T04:27:18.380Z,2.5
2023-12-27T04:28:32.735Z,2.5
2023-12-27T04:29:47.090Z,2.4
2023-12-27T04:31:01.445Z,2.4
2023-12-27T04:32:15.800Z,2.4
2023-12-27T04:33:30.155Z,2.4
2023-12-27T04:34:44.510Z,2.5
2023-12-27T04:35:58.865Z,2.4
2023-12-27T04:37:13.220Z,2.5
2023-12-27T04:38:27.575Z,2.5
2023-12-27T04:39:41.930Z,2.5
2023-12-27T04:40:56.285Z,2.5
2023-12-27T04:42:10.641Z,2.5
2023-12-27T04:43:24.996Z,2.5
2023-12-27T04:44:39.351Z,2.5
2023-12-27T04:45:53.706Z,2.5
2023-12-27T04:47:08.061Z,2.5
2023-12-27T04:48:22.416Z,2.4
2023-12-27T04:49:36.771Z,2.3
2023-12-27T04:50:51.126Z,2.3
2023-12-27T04:52:05.481Z,2.2
2023-12-27T04:53:19.837Z,2.2
2023-12-27T04:54:34.192Z,2.2
2023-12-27T04:55:48.547Z,2.1
2023-12-27T04:57:02.902Z,2.1
2023-12-27T04:58:17.257Z,2.1
2023-12-27T04:59:31.612Z,2.1
2023-12-27T05:02:00.322Z,2
2023-12-27T05:03:14.678Z,2
2023-12-27T05:04:29.033Z,2
2023-12-27T05:05:43.388Z,2
2023-12-27T05:06:57.743Z,2
2023-12-27T05:08:12.098Z,2
2023-12-27T05:09:26.453Z,2
2023-12-27T05:10:40.808Z,2
2023-12-27T05:11:55.163Z,2
2023-12-27T05:13:09.519Z,2
2023-12-27T05:14:23.874Z,2
2023-12-27T05:15:38.229Z,2
2023-12-27T05:16:52.584Z,2
2023-12-27T05:18:06.939Z,2
2023-12-27T05:19:21.294Z,2
2023-12-27T05:20:35.649Z,2
2023-12-27T05:21:50.005Z,2
2023-12-27T05:23:04.360Z,1.9
2023-12-27T05:24:18.715Z,1.9
2023-12-27T05:25:33.070Z,2
2023-12-27T05:26:47.426Z,1.9
2023-12-27T05:28:01.781Z,1.9
2023-12-27T05:29:16.136Z,1.9
2023-12-27T05:30:30.492Z,1.9
2023-12-27T05:31:44.847Z,1.8
2023-12-27T05:32:59.202Z,1.8
2023-12-27T05:34:13.558Z,1.8
2023-12-27T05:35:27.913Z,1.9
2023-12-27T05:36:42.268Z,1.9
2023-12-27T05:37:56.623Z,1.9
2023-12-27T05:39:10.978Z,1.9
2023-12-27T05:40:24.391Z,1.9
2023-12-27T05:41:38.748Z,2
2023-12-27T05:42:53.103Z,2
2023-12-27T05:44:07.459Z,1.9
2023-12-27T05:45:21.814Z,1.9
2023-12-27T05:46:36.169Z,1.9
2023-12-27T05:47:50.524Z,1.7
2023-12-27T05:49:04.880Z,1.7
2023-12-27T05:50:19.235Z,1.7
2023-12-27T05:51:33.590Z,1.7
2023-12-27T05:52:47.945Z,1.7
2023-12-27T05:54:02.302Z,1.7
2023-12-27T05:55:16.657Z,1.7
2023-12-27T05:56:31.012Z,1.7
2023-12-27T05:57:45.368Z,1.7
2023-12-27T05:58:59.723Z,1.7
2023-12-27T06:00:14.078Z,1.7
2023-12-27T06:01:28.434Z,1.7
2023-12-27T06:02:42.789Z,1.7
2023-12-27T06:03:57.145Z,1.7
2023-12-27T06:05:11.500Z,1.7
2023-12-27T06:06:25.855Z,1.8
2023-12-27T06:07:40.211Z,1.8
2023-12-27T06:08:54.566Z,1.8
2023-12-27T06:10:08.922Z,1.7
2023-12-27T06:11:23.277Z,1.7
2023-12-27T06:12:37.632Z,1.7
2023-12-27T06:15:06.343Z,1.8
2023-12-27T06:16:20.699Z,1.9
2023-12-27T06:18:49.409Z,1.8
2023-12-27T06:20:03.764Z,1.7
2023-12-27T06:21:18.120Z,1.7
2023-12-27T06:22:32.475Z,1.7
2023-12-27T06:23:46.831Z,1.7
2023-12-27T06:25:01.186Z,1.7
2023-12-27T06:26:15.542Z,1.7
2023-12-27T06:27:29.898Z,1.7
2023-12-27T06:28:44.253Z,1.7
2023-12-27T06:29:58.609Z,1.7
2023-12-27T06:31:12.965Z,1.7
2023-12-27T06:32:27.266Z,1.7
2023-12-27T06:33:41.622Z,1.8
2023-12-27T06:34:55.934Z,1.7
2023-12-27T06:36:10.236Z,1.7
2023-12-27T06:37:24.537Z,1.7
2023-12-27T06:38:38.893Z,1.7
2023-12-27T06:39:53.205Z,1.7
2023-12-27T06:41:07.508Z,1.7
2023-12-27T06:42:21.864Z,1.7
2023-12-27T06:43:36.220Z,1.7
2023-12-27T06:44:50.532Z,1.7
2023-12-27T06:46:04.834Z,1.7
2023-12-27T06:47:19.135Z,1.7
2023-12-27T06:48:33.437Z,1.8
2023-12-27T06:49:47.738Z,1.8
2023-12-27T06:51:02.040Z,1.9
2023-12-27T06:52:16.341Z,1.9
2023-12-27T06:53:30.643Z,2
2023-12-27T06:54:44.945Z,1.9
2023-12-27T06:55:59.246Z,1.9
2023-12-27T06:57:13.547Z,1.8
2023-12-27T06:58:27.849Z,1.8
2023-12-27T06:59:42.150Z,1.8
2023-12-27T07:00:56.451Z,1.7
2023-12-27T07:02:10.753Z,1.6
2023-12-27T07:03:25.054Z,1.6
2023-12-27T07:04:39.356Z,1.6
2023-12-27T07:05:53.657Z,1.6
2023-12-27T07:07:07.958Z,1.6
2023-12-27T07:08:22.260Z,1.6
2023-12-27T07:09:36.561Z,1.6
2023-12-27T07:10:50.863Z,1.6
2023-12-27T07:12:05.164Z,1.7
2023-12-27T07:13:19.466Z,1.7
2023-12-27T07:14:33.767Z,1.7
2023-12-27T07:15:48.068Z,1.7
2023-12-27T07:17:02.370Z,1.7
2023-12-27T07:18:16.671Z,1.7
2023-12-27T07:19:30.973Z,1.8
2023-12-27T07:20:45.274Z,1.8
2023-12-27T07:21:59.575Z,1.9
2023-12-27T07:23:13.877Z,1.9
2023-12-27T07:24:28.178Z,2
2023-12-27T07:25:42.480Z,2
2023-12-27T07:26:56.781Z,2
2023-12-27T07:28:11.083Z,2
2023-12-27T07:29:25.384Z,2
2023-12-27T07:30:39.686Z,2
2023-12-27T07:31:53.987Z,2
2023-12-27T07:33:08.288Z,2
2023-12-27T07:34:22.590Z,1.9
2023-12-27T07:35:36.891Z,1.8
2023-12-27T07:36:51.192Z,1.7
2023-12-27T07:38:05.493Z,1.7
2023-12-27T07:39:19.795Z,1.6
2023-12-27T07:40:34.096Z,1.7
2023-12-27T07:41:48.397Z,1.7
2023-12-27T07:43:02.699Z,1.8
2023-12-27T07:44:17.000Z,1.8
2023-12-27T07:45:31.302Z,1.9
2023-12-27T07:46:45.603Z,1.9
2023-12-27T07:47:59.904Z,1.9
2023-12-27T07:49:14.206Z,1.9
2023-12-27T07:50:28.507Z,1.9
2023-12-27T07:51:42.808Z,1.9
2023-12-27T07:52:57.110Z,2
2023-12-27T07:54:11.412Z,2.1
2023-12-27T07:55:25.713Z,2.1
2023-12-27T07:56:40.014Z,2.2
2023-12-27T07:57:54.316Z,2.2
2023-12-27T07:59:08.617Z,2.4
2023-12-27T08:00:22.918Z,2.5
2023-12-27T08:01:37.220Z,2.6
2023-12-27T08:02:51.522Z,2.7
2023-12-27T08:04:05.823Z,2.7
2023-12-27T08:05:20.124Z,2.8
2023-12-27T08:06:34.425Z,2.8
2023-12-27T08:07:48.727Z,2.8
2023-12-27T08:09:03.028Z,2.7
2023-12-27T08:10:17.329Z,2.7
2023-12-27T08:11:31.630Z,2.8
2023-12-27T08:12:45.932Z,2.8
2023-12-27T08:14:00.233Z,2.9
2023-12-27T08:15:14.534Z,3
2023-12-27T08:16:28.835Z,3
2023-12-27T08:17:43.136Z,3.1
2023-12-27T08:18:57.437Z,3.1
2023-12-27T08:20:11.739Z,3.3
2023-12-27T08:21:26.040Z,3.3
2023-12-27T08:22:40.342Z,3.4
2023-12-27T08:23:54.643Z,3.5
2023-12-27T08:25:08.944Z,3.4
2023-12-27T08:26:23.246Z,3.4
2023-12-27T08:27:37.547Z,3.3
2023-12-27T08:28:51.848Z,3.3
2023-12-27T08:30:06.150Z,3.4
2023-12-27T08:31:20.451Z,3.4
2023-12-27T08:32:34.753Z,3.4
2023-12-27T08:33:49.054Z,3.5
2023-12-27T08:35:03.355Z,3.7
2023-12-27T08:36:17.656Z,3.8
2023-12-27T08:37:31.957Z,3.9
2023-12-27T08:38:46.258Z,4
2023-12-27T08:40:00.559Z,4.1
2023-12-27T08:41:14.860Z,4.2
2023-12-27T08:42:29.162Z,4.3
2023-12-27T08:43:43.463Z,4.2
2023-12-27T08:44:57.764Z,4.2
2023-12-27T08:46:12.065Z,4.4
2023-12-27T08:47:26.366Z,4.6
2023-12-27T08:48:40.668Z,4.7
2023-12-27T08:49:54.969Z,4.9
2023-12-27T08:51:09.270Z,5.1
2023-12-27T08:52:23.571Z,5.2
2023-12-27T08:53:37.872Z,5.3
2023-12-27T08:54:52.173Z,5.2
2023-12-27T08:56:06.474Z,5.1
2023-12-27T08:57:20.775Z,5
2023-12-27T08:58:35.076Z,5
2023-12-27T08:59:49.377Z,5.1
2023-12-27T09:01:03.678Z,4.9
2023-12-27T09:02:17.980Z,4.8
2023-12-27T09:03:32.281Z,4.9
2023-12-27T09:04:46.582Z,4.7
2023-12-27T09:06:00.883Z,4.7
2023-12-27T09:07:15.184Z,4.7
2023-12-27T09:08:29.484Z,4.7
2023-12-27T09:09:43.785Z,4.7
2023-12-27T09:10:58.086Z,4.7
2023-12-27T09:12:12.388Z,4.8
2023-12-27T09:13:26.689Z,4.8
2023-12-27T09:14:40.990Z,4.9
2023-12-27T09:15:55.291Z,5
2023-12-27T09:17:09.592Z,5.1
2023-12-27T09:18:23.893Z,5.1
2023-12-27T09:19:38.194Z,5
2023-12-27T09:20:52.495Z,5.1
2023-12-27T09:22:06.796Z,5.1
2023-12-27T09:23:21.097Z,5.1
2023-12-27T09:24:35.398Z,5.2
2023-12-27T09:25:49.699Z,5.1
2023-12-27T09:27:03.999Z,5.2
2023-12-27T09:28:18.300Z,5.2
2023-12-27T09:29:32.601Z,5.2
2023-12-27T09:30:46.902Z,5.3
2023-12-27T09:32:01.203Z,5.3
2023-12-27T09:33:15.504Z,5.3
2023-12-27T09:34:29.805Z,5.3
2023-12-27T09:35:44.106Z,5.2
2023-12-27T09:36:58.407Z,5.1
2023-12-27T09:38:12.708Z,5
2023-12-27T09:39:27.009Z,5.1
2023-12-27T09:40:41.310Z,5
2023-12-27T09:41:55.611Z,5
2023-12-27T09:43:09.912Z,5.1
2023-12-27T09:44:24.213Z,5.2
2023-12-27T09:46:52.814Z,5.5
2023-12-27T09:48:07.115Z,5.6
2023-12-27T09:49:20.474Z,5.8
2023-12-27T09:50:34.776Z,5.8
2023-12-27T09:51:49.077Z,6
2023-12-27T09:53:03.378Z,6.1
2023-12-27T09:54:17.679Z,6.2
2023-12-27T09:55:31.980Z,6.3
2023-12-27T09:56:46.280Z,6.3
2023-12-27T09:58:00.581Z,6.2
2023-12-27T09:59:14.883Z,6.2
2023-12-27T10:00:29.184Z,6
2023-12-27T10:01:43.485Z,5.9
2023-12-27T10:02:57.786Z,5.8
2023-12-27T10:04:12.087Z,5.6
2023-12-27T10:05:26.387Z,5.6
2023-12-27T10:06:40.688Z,5.6
2023-12-27T10:07:54.989Z,5.5
2023-12-27T10:09:09.290Z,5.6
2023-12-27T10:10:23.591Z,5.6
2023-12-27T10:11:37.892Z,5.7
2023-12-27T10:12:52.193Z,5.7
2023-12-27T10:14:06.494Z,5.7
2023-12-27T10:15:20.795Z,5.7
2023-12-27T10:16:35.096Z,5.8
2023-12-27T10:17:49.396Z,5.8
2023-12-27T10:19:03.697Z,5.9
2023-12-27T10:20:17.998Z,6
2023-12-27T10:21:32.299Z,6
2023-12-27T10:22:46.601Z,6
2023-12-27T10:24:00.901Z,6.1
2023-12-27T10:25:15.202Z,6.1
2023-12-27T10:26:29.503Z,6.2
2023-12-27T10:27:43.804Z,6.3
2023-12-27T10:28:58.105Z,6.4
2023-12-27T10:31:26.707Z,6.5
2023-12-27T10:32:41.008Z,6.5
2023-12-27T10:33:55.309Z,6.6
2023-12-27T10:35:09.610Z,6.6
2023-12-27T10:36:23.911Z,6.8
2023-12-27T10:37:38.212Z,6.8
2023-12-27T10:38:52.513Z,6.9
2023-12-27T10:40:06.815Z,7
2023-12-27T10:41:21.116Z,7.1
2023-12-27T10:42:35.417Z,7.3
2023-12-27T10:43:49.718Z,7.4
2023-12-27T10:45:04.019Z,7.6
2023-12-27T10:46:18.320Z,7.8
2023-12-27T10:47:32.621Z,7.9
2023-12-27T10:48:46.922Z,8
2023-12-27T10:50:01.223Z,8
2023-12-27T10:51:15.524Z,7.8
2023-12-27T10:52:29.825Z,7.7
2023-12-27T10:53:44.126Z,7.6
2023-12-27T10:54:58.427Z,7.5
2023-12-27T10:56:12.728Z,7.4
2023-12-27T10:57:27.029Z,7.4
2023-12-27T10:58:41.329Z,7.4
2023-12-27T10:59:55.630Z,7.5
2023-12-27T11:01:09.931Z,7.5
2023-12-27T11:02:24.232Z,7.6
2023-12-27T11:03:38.533Z,7.6
2023-12-27T11:04:52.834Z,7.5
2023-12-27T11:06:07.135Z,7.5
2023-12-27T11:07:21.436Z,7.6
2023-12-27T11:08:35.737Z,7.6
2023-12-27T11:09:50.038Z,7.6
2023-12-27T11:11:04.339Z,7.6
2023-12-27T11:12:18.641Z,7.7
2023-12-27T11:13:32.942Z,7.7
2023-12-27T11:14:47.243Z,7.7
2023-12-27T11:16:01.544Z,7.7
2023-12-27T11:17:15.845Z,7.7
2023-12-27T11:18:30.146Z,7.7
2023-12-27T11:19:44.446Z,7.7
2023-12-27T11:20:58.747Z,7.7
2023-12-27T11:22:13.048Z,7.7
2023-12-27T11:23:27.349Z,7.8
2023-12-27T11:24:41.650Z,7.9
2023-12-27T11:25:55.951Z,7.9
2023-12-27T11:27:10.252Z,7.9
2023-12-27T11:28:24.553Z,7.9
2023-12-27T11:29:38.854Z,7.9
2023-12-27T11:30:53.155Z,7.8
2023-12-27T11:32:07.456Z,7.9
2023-12-27T11:33:21.757Z,7.9
2023-12-27T11:34:36.058Z,7.9
2023-12-27T11:35:50.358Z,7.9
2023-12-27T11:37:04.659Z,7.9
2023-12-27T11:38:18.960Z,7.9
2023-12-27T11:39:33.261Z,7.9
2023-12-27T11:40:47.562Z,7.9
2023-12-27T11:42:01.863Z,8
2023-12-27T11:43:16.164Z,7.9
2023-12-27T11:44:30.465Z,7.9
2023-12-27T11:49:57.413Z,7.9
2023-12-27T11:51:11.713Z,7.9
2023-12-27T11:52:26.014Z,8
2023-12-27T11:53:40.315Z,8
2023-12-27T11:54:54.615Z,8.1
2023-12-27T11:56:08.916Z,8.1
2023-12-27T11:57:23.217Z,8.1
2023-12-27T11:58:37.517Z,8.1
2023-12-27T11:59:51.818Z,8.1
2023-12-27T12:01:06.119Z,8.2
2023-12-27T12:02:20.419Z,8.1
2023-12-27T12:03:34.720Z,8.2
2023-12-27T12:04:49.021Z,8.2
2023-12-27T12:06:03.321Z,8.2
2023-12-27T12:07:17.622Z,8.2
2023-12-27T12:08:31.922Z,8.2
2023-12-27T12:09:46.223Z,8.2
2023-12-27T12:11:00.524Z,8.2
2023-12-27T12:12:14.825Z,8.3
2023-12-27T12:13:29.125Z,8.3
2023-12-27T12:14:43.426Z,8.4
2023-12-27T12:15:57.726Z,8.4
2023-12-27T12:17:12.027Z,8.4
2023-12-27T12:18:26.328Z,8.4
2023-12-27T12:19:40.629Z,8.4
2023-12-27T12:20:54.929Z,8.3
2023-12-27T12:22:09.230Z,8.4
2023-12-27T12:23:23.530Z,8.3
2023-12-27T12:24:37.831Z,8.3
2023-12-27T12:25:52.132Z,8.3
2023-12-27T12:27:06.432Z,8.3
2023-12-27T12:28:20.733Z,8.3
2023-12-27T12:29:35.034Z,8.3
2023-12-27T12:30:49.334Z,8.3
2023-12-27T12:32:03.635Z,8.3
2023-12-27T12:33:17.935Z,8.4
2023-12-27T12:34:32.236Z,8.4
2023-12-27T12:35:46.537Z,8.4
2023-12-27T12:38:15.138Z,8.4
2023-12-27T12:39:29.439Z,8.4
2023-12-27T12:40:43.739Z,8.4
2023-12-27T12:41:58.040Z,8.4
2023-12-27T12:43:12.341Z,8.4
2023-12-27T12:44:26.641Z,8.4
2023-12-27T12:45:40.942Z,8.4
2023-12-27T12:46:55.242Z,8.5
2023-12-27T12:48:09.543Z,8.5
2023-12-27T12:49:23.844Z,8.5
2023-12-27T12:50:38.145Z,8.5
2023-12-27T12:51:52.445Z,8.4
2023-12-27T12:53:06.746Z,8.4
2023-12-27T12:54:21.046Z,8.4
2023-12-27T12:55:35.347Z,8.4
2023-12-27T12:56:49.647Z,8.3
2023-12-27T12:58:03.948Z,8.2
2023-12-27T12:59:18.250Z,8.2
2023-12-27T13:00:32.551Z,8.2
2023-12-27T13:01:46.851Z,8.3
2023-12-27T13:03:01.152Z,8.3
2023-12-27T13:04:15.452Z,8.4
2023-12-27T13:05:29.753Z,8.4
2023-12-27T13:06:44.053Z,8.4
2023-12-27T13:07:58.354Z,8.4
2023-12-27T13:09:12.655Z,8.4
2023-12-27T13:10:26.956Z,8.3
2023-12-27T13:11:41.256Z,8.3
2023-12-27T13:12:55.557Z,8.3
2023-12-27T13:14:09.857Z,8.3
2023-12-27T13:15:24.158Z,8.4
2023-12-27T13:16:38.459Z,8.4
2023-12-27T13:17:52.759Z,8.4
2023-12-27T13:19:07.060Z,8.4
2023-12-27T13:20:21.361Z,8.4
2023-12-27T13:21:35.661Z,8.4
2023-12-27T13:22:49.962Z,8.4
2023-12-27T13:24:04.263Z,8.3
2023-12-27T13:25:18.563Z,8.3
2023-12-27T13:26:32.864Z,8.3
2023-12-27T13:27:47.165Z,8.2
2023-12-27T13:29:01.466Z,8.3
2023-12-27T13:30:15.766Z,8.3
2023-12-27T13:31:30.067Z,8.3
2023-12-27T13:32:44.368Z,8.3
2023-12-27T13:33:58.668Z,8.2
2023-12-27T13:35:12.969Z,8.2
2023-12-27T13:36:27.270Z,8.1
2023-12-27T13:37:41.570Z,8.1
2023-12-27T13:38:55.871Z,8.1
2023-12-27T13:40:10.172Z,8.1
2023-12-27T13:41:24.473Z,8
2023-12-27T13:42:38.773Z,8
2023-12-27T13:43:53.074Z,8
2023-12-27T13:45:07.375Z,8
2023-12-27T13:46:21.675Z,8
2023-12-27T13:47:35.976Z,8
2023-12-27T13:48:50.277Z,8.1
2023-12-27T13:50:04.577Z,8.1
2023-12-27T13:51:18.878Z,8.2
2023-12-27T13:52:33.179Z,8.2
2023-12-27T13:53:47.479Z,8.3
2023-12-27T13:55:01.780Z,8.3
2023-12-27T13:56:16.081Z,8.3
2023-12-27T13:57:30.381Z,8.3
2023-12-27T13:58:44.682Z,8.3
2023-12-27T13:59:58.983Z,8.3
2023-12-27T14:01:13.283Z,8.3
2023-12-27T14:02:27.584Z,8.3
2023-12-27T14:03:41.885Z,8.3
2023-12-27T14:04:56.186Z,8.3
2023-12-27T14:06:10.487Z,8.2
2023-12-27T14:07:24.787Z,8.2
2023-12-27T14:08:39.088Z,8.2
2023-12-27T14:09:53.389Z,8.1
2023-12-27T14:11:07.690Z,8
2023-12-27T14:12:21.990Z,8.1
2023-12-27T14:13:36.291Z,8
2023-12-27T14:14:50.591Z,8
2023-12-27T14:16:04.892Z,8
2023-12-27T14:18:33.494Z,8
2023-12-27T14:19:47.794Z,7.9
2023-12-27T14:21:02.095Z,7.9
2023-12-27T14:22:16.396Z,7.9
2023-12-27T14:23:30.696Z,7.9
2023-12-27T14:24:44.997Z,7.9
2023-12-27T14:25:59.298Z,7.9
2023-12-27T14:27:13.598Z,7.9
2023-12-27T14:28:27.899Z,7.9
2023-12-27T14:29:42.200Z,7.9
2023-12-27T14:30:56.500Z,7.8
2023-12-27T14:32:10.801Z,7.8
2023-12-27T14:33:25.102Z,7.8
2023-12-27T14:34:39.402Z,7.8
2023-12-27T14:35:53.703Z,7.7
2023-12-27T14:37:08.004Z,7.7
2023-12-27T14:38:22.305Z,7.6
2023-12-27T14:39:36.605Z,7.6
2023-12-27T14:40:50.906Z,7.5
2023-12-27T14:42:05.206Z,7.5
2023-12-27T14:43:19.508Z,7.5
2023-12-27T14:44:33.809Z,7.4
2023-12-27T14:45:48.109Z,7.4
2023-12-27T14:47:02.410Z,7.4
2023-12-27T14:48:16.711Z,7.4
2023-12-27T14:49:31.011Z,7.3
2023-12-27T14:50:45.312Z,7.3
2023-12-27T14:51:59.612Z,7.2
2023-12-27T14:53:13.913Z,7.1
2023-12-27T14:54:28.214Z,7.2
2023-12-27T14:55:42.514Z,7.1
2023-12-27T14:56:56.815Z,7.1
2023-12-27T14:58:11.116Z,7.1
2023-12-27T14:59:25.416Z,7.1
2023-12-27T15:00:39.717Z,7.1
2023-12-27T15:01:54.017Z,7.1
2023-12-27T15:03:08.318Z,7.1
2023-12-27T15:04:22.619Z,7
2023-12-27T15:05:36.919Z,7
2023-12-27T15:06:51.220Z,7
2023-12-27T15:08:05.521Z,7
2023-12-27T15:09:19.821Z,6.9
2023-12-27T15:10:34.122Z,6.9
2023-12-27T15:11:48.423Z,6.8
2023-12-27T15:13:02.723Z,6.8
2023-12-27T15:14:17.024Z,6.8
2023-12-27T15:15:31.325Z,6.7
2023-12-27T15:16:45.625Z,6.7
2023-12-27T15:17:59.926Z,6.6
2023-12-27T15:19:14.227Z,6.6
2023-12-27T15:20:28.528Z,6.7
2023-12-27T15:21:42.828Z,6.7
2023-12-27T15:22:57.129Z,6.7
2023-12-27T15:24:11.429Z,6.7
2023-12-27T15:25:25.730Z,6.8
2023-12-27T15:26:40.031Z,6.8
2023-12-27T15:27:54.332Z,6.7
2023-12-27T15:29:08.633Z,6.8
2023-12-27T15:30:22.933Z,6.8
2023-12-27T15:31:37.234Z,6.7
2023-12-27T15:32:51.535Z,6.7
2023-12-27T15:34:05.835Z,6.7
2023-12-27T15:35:20.136Z,6.7
2023-12-27T15:36:34.436Z,6.7
2023-12-27T15:37:48.738Z,6.7
2023-12-27T15:39:03.092Z,6.6
2023-12-27T15:40:17.447Z,6.7
2023-12-27T15:41:31.802Z,6.6
2023-12-27T15:42:46.157Z,6.7
2023-12-27T15:44:00.512Z,6.6
2023-12-27T15:45:14.867Z,6.6
2023-12-27T15:46:29.222Z,6.6
2023-12-27T15:47:43.577Z,6.6
2023-12-27T15:48:57.932Z,6.6
2023-12-27T15:50:12.286Z,6.6
2023-12-27T15:51:26.641Z,6.5
2023-12-27T15:52:40.995Z,6.5
2023-12-27T15:53:55.350Z,6.6
2023-12-27T15:55:09.705Z,6.5
2023-12-27T15:56:24.059Z,6.5
2023-12-27T15:57:38.414Z,6.5
2023-12-27T15:58:51.827Z,6.5
2023-12-27T16:00:06.182Z,6.6
2023-12-27T16:01:20.536Z,6.6
2023-12-27T16:02:34.891Z,6.6
2023-12-27T16:03:49.246Z,6.6
2023-12-27T16:05:03.600Z,6.6
2023-12-27T16:06:17.955Z,6.6
2023-12-27T16:07:32.309Z,6.6
2023-12-27T16:08:46.664Z,6.6
2023-12-27T16:10:01.019Z,6.7
2023-12-27T16:11:15.374Z,6.7
2023-12-27T16:12:29.728Z,6.7
2023-12-27T16:13:44.083Z,6.8
2023-12-27T16:14:58.438Z,6.8
2023-12-27T16:16:12.792Z,6.8
2023-12-27T16:17:27.147Z,6.9
2023-12-27T16:18:41.502Z,6.9
2023-12-27T16:19:55.857Z,6.9
2023-12-27T16:21:10.211Z,6.9
2023-12-27T16:22:24.566Z,6.9
2023-12-27T16:23:38.920Z,6.8
2023-12-27T16:24:53.275Z,6.9
2023-12-27T16:26:07.630Z,6.9
2023-12-27T16:27:21.984Z,6.9
2023-12-27T16:28:36.339Z,6.9
2023-12-27T16:29:50.694Z,6.9
2023-12-27T16:31:05.048Z,6.9
2023-12-27T16:32:19.403Z,7
2023-12-27T16:33:33.758Z,6.9
2023-12-27T16:34:48.112Z,6.9
2023-12-27T16:36:02.467Z,7
2023-12-27T16:37:16.821Z,6.9
2023-12-27T16:38:31.176Z,6.9
2023-12-27T16:39:45.531Z,6.9
2023-12-27T16:40:59.885Z,6.9
2023-12-27T16:42:14.240Z,7
2023-12-27T16:43:28.595Z,6.9
2023-12-27T16:44:42.949Z,6.9
2023-12-27T16:45:57.304Z,6.9
2023-12-27T16:47:11.658Z,6.9
2023-12-27T16:48:26.013Z,6.9
2023-12-27T16:49:40.368Z,6.9
2023-12-27T16:50:54.723Z,6.8
2023-12-27T16:52:09.077Z,6.9
2023-12-27T16:53:23.432Z,6.8
2023-12-27T16:54:37.786Z,6.8
2023-12-27T16:55:52.141Z,6.8
2023-12-27T16:57:06.496Z,6.8
2023-12-27T16:58:20.851Z,6.8
2023-12-27T16:59:35.205Z,6.9
2023-12-27T17:00:49.560Z,6.9
2023-12-27T17:02:03.914Z,6.9
2023-12-27T17:03:18.269Z,6.9
2023-12-27T17:04:32.624Z,6.9
2023-12-27T17:05:46.979Z,6.9
2023-12-27T17:07:01.334Z,7
2023-12-27T17:08:15.689Z,6.9
2023-12-27T17:09:30.043Z,7
2023-12-27T17:10:44.398Z,7
2023-12-27T17:11:58.753Z,7
2023-12-27T17:13:13.107Z,6.9
2023-12-27T17:14:27.462Z,7
2023-12-27T17:15:41.816Z,7
2023-12-27T17:16:56.171Z,7
2023-12-27T17:18:10.526Z,7
2023-12-27T17:19:24.881Z,6.9
2023-12-27T17:20:39.235Z,6.9
2023-12-27T17:21:53.590Z,6.9
2023-12-27T17:23:07.944Z,6.8
2023-12-27T17:24:22.299Z,6.8
2023-12-27T17:25:36.654Z,6.8
2023-12-27T17:26:51.008Z,6.8
2023-12-27T17:28:05.363Z,6.7
2023-12-27T17:29:19.718Z,6.7
2023-12-27T17:30:34.072Z,6.7